Central Sierra Snow Lab Weather observations

Data are for 10 minute period ending at time listed.
 Day   Time    Incoming  Reflected   Ave.   Ave.    Ave.    Vector  Max.    Ave.    Total    Snow   
  of    of      Solar     Solar      Air    Rel.    Wind    Wind    Wind   Baro.   Precip.   Depth  
Year   Day     Radiation Radiation   Temp.  Humid.  Speed   Dir.    Gust   Press.                   
2015   (PST)    Kw/m2     Kw/m2       F       %      mph     deg.    mph     mb.     in.      in.   
----------------------------------------------------------------------------------------------------
  24   10:50    0.486     999.000     48.6     24     3.4      67    11.2   800.30    7.93    0.40  
  24   11:00    0.500     999.000     49.6     24     2.2      85    10.0   800.30    7.94    0.10  
  24   11:10    0.511     999.000     50.3     24     2.5      83     8.9   800.30    7.93    0.00  
  24   11:20    0.522     999.000     50.7     23     3.0      91     8.0   800.30    7.94    0.10  
  24   11:30    0.531     999.000     51.2     23     3.1     130     5.0   800.10    7.94    0.20  
  24   11:40    0.539     999.000     51.2     24     3.7     108     7.0   800.00    7.94    0.00  
  24   11:50    0.546     999.000     51.5     25     3.5      86     9.2   799.80    7.94   -0.30  
  24   12:00    0.551     999.000     52.3     26     2.0      41     5.7   799.80    7.93   -0.70  
  24   12:10    0.554     999.000     52.2     26     2.5      31     6.8   799.90    7.93   -0.80  
  24   12:20    0.555     999.000     52.2     24     3.2      44     9.2   799.80    7.93   -0.70  
  24   12:30    0.554     999.000     51.8     25     4.1      89    10.6   799.70    7.94   -0.40  
  24   12:40    0.551     999.000     51.7     26     4.1      74     8.9   799.50    7.93   -0.40  
  24   12:50    0.548     999.000     52.0     26     2.5      67     8.6   799.30    7.93   -0.50  
  24   13:00    0.543     999.000     52.7     25     3.0      79     7.3   799.10    7.93   -0.80  
  24   13:10    0.536     999.000     52.4     25     4.0      83     8.8   798.90    7.93   -0.50  
  24   13:20    0.526     999.000     52.2     26     3.7      86     9.3   798.90    7.93   -0.60  
  24   13:30    0.516     999.000     52.3     26     3.2      94     8.5   798.80    7.93   -0.60  
  24   13:40    0.505     999.000     52.4     26     4.8      96    12.1   798.60    7.94   -0.40  
  24   13:50    0.491     999.000     52.4     26     4.1      88    11.5   798.60    7.93   -0.40  
  24   14:00    0.475     999.000     53.0     26     3.3      80     8.4   798.60    7.93   -1.00  
  24   14:10    0.458     999.000     53.3     25     3.5      92     9.6   798.60    7.93   -0.30  
  24   14:20    0.440     999.000     53.3     25     3.1      90     9.1   798.50    7.94    0.10  
  24   14:30    0.420     999.000     52.8     26     4.1      92    12.2   798.30    7.94    0.40  
  24   14:40    0.277     999.000     52.6     27     3.7     115     9.4   798.20    7.93    0.30  
  24   14:50    0.272     999.000     52.2     27     5.3      95    11.6   798.10    7.93    0.50  
  24   15:00    0.114     999.000     51.9     28     4.0     108    12.3   798.00    7.93    0.40  
  24   15:10    0.044     999.000     52.0     28     3.9      96    10.4   798.00    7.93    0.50  
  24   15:20    0.082     999.000     51.5     30     2.8     103    11.3   798.00    7.93    0.80  
  24   15:30    0.046     999.000     51.0     30     3.7     106     8.7   798.10    7.93    1.00  
  24   15:40    0.024     999.000     50.7     30     3.9      81    13.3   798.10    7.93    1.20  
  24   15:50    0.022     999.000     50.3     30     4.7      96    15.8   798.20    7.93    1.40  
  24   16:00    0.023     999.000     49.7     31     4.2     124     9.5   798.20    7.93    1.40  
  24   16:10    0.019     999.000     49.4     32     4.5     129    10.4   798.10    7.93    1.40  
  24   16:20    0.018     999.000     49.2     32     4.7     122    10.9   798.10    7.93    1.40  
  24   16:30    0.018     999.000     48.6     33     4.2     116    10.0   798.20    7.93    1.50  
  24   16:40    0.018     999.000     47.9     34     3.9     129     9.6   798.30    7.93    1.50  
  24   16:50    0.017     999.000     47.4     34     3.4     143     8.2   798.30    7.94    1.40  
  24   17:00    0.011     999.000     46.6     35     5.0      98    16.3   798.30    7.94    1.50  
  24   17:10    0.007     999.000     45.5     36     4.1      94    14.2   798.30    7.94    1.60  
  24   17:20    0.003     999.000     44.8     37     3.9      82    10.5   798.30    7.93    1.60  
  24   17:30    0.002     999.000     44.1     38     3.4      96    11.8   798.40    7.93    1.60  
  24   17:40    0.000     999.000     43.6     38     3.4      84     9.0   798.40    7.93    1.70  
  24   17:50    0.000     999.000     43.2     39     3.5     109     9.6   798.40    7.93    1.60  
  24   18:00    0.000     999.000     42.6     40     4.0     111     9.5   798.40    7.94    1.60  
  24   18:10    0.000     999.000     42.5     40     5.0     100    11.8   798.40    7.94    1.70  
  24   18:20    0.000     999.000     42.3     40     4.1      87    12.3   798.40    7.94    1.70  
  24   18:30    0.000     999.000     41.9     40     4.4      52    11.3   798.30    7.93    1.70  
  24   18:40    0.000     999.000     41.8     40     4.6      54    13.9   798.30    7.94    1.70  
  24   18:50    0.000     999.000     41.8     40     4.2      46    11.8   798.40    7.94    1.70  
  24   19:00    0.000     999.000     41.8     40     3.8      42    11.0   798.40    7.94    1.80  
  24   19:10    0.000     999.000     42.0     40     4.5      46    14.1   798.40    7.94    1.70  
  24   19:20    0.000     999.000     42.1     40     4.1      38    12.5   798.40    7.94    1.70  
  24   19:30    0.000     999.000     42.4     41     3.6      42     9.9   798.40    7.94    1.70  
  24   19:40    0.000     999.000     42.5     42     4.1      61    11.8   798.50    7.94    1.70  
  24   19:50    0.000     999.000     42.4     42     3.6      64    12.4   798.50    7.93    1.70  
  24   20:00    0.000     999.000     42.1     43     3.4      59     9.9   798.60    7.94    1.70  
  24   20:10    0.000     999.000     42.2     42     4.7      58    16.0   798.60    7.93    1.70  
  24   20:20    0.000     999.000     42.2     43     4.3      35    13.0   798.60    7.94    1.60  
  24   20:30    0.000     999.000     42.0     43     3.8      52    11.5   798.70    7.94    1.60  
  24   20:40    0.000     999.000     41.7     43     3.7      41    11.1   798.80    7.94    1.70  
  24   20:50    0.000     999.000     41.6     43     4.6      54    13.4   799.00    7.94    1.70  
  24   21:00    0.000     999.000     41.7     43     3.8      52     9.1   799.10    7.94    1.70  
  24   21:10    0.000     999.000     41.4     43     4.0      36    11.9   799.20    7.94    1.70  
  24   21:20    0.000     999.000     41.5     43     3.7      63     8.3   799.20    7.94    1.80  
  24   21:30    0.000     999.000     41.5     43     3.4      49     9.8   799.30    7.94    1.70  
  24   21:40    0.000     999.000     41.1     43     3.2      53     8.5   799.30    7.94    1.70  
  24   21:50    0.000     999.000     41.0     44     3.6      65     9.1   799.30    7.93    1.60  
  24   22:00    0.000     999.000     41.0     43     3.6      55     9.8   799.20    7.94    1.60  
  24   22:10    0.000     999.000     41.2     43     3.1      64     8.7   799.20    7.94    1.80  
  24   22:20    0.000     999.000     41.1     43     3.1      48     9.5   799.20    7.94    1.70  
  24   22:30    0.000     999.000     40.9     43     3.4      58     8.1   799.30    7.94    1.70  
  24   22:40    0.000     999.000     41.0     43     3.4      58     7.9   799.40    7.94    1.70  
  24   22:50    0.000     999.000     40.9     44     3.0      57     6.9   799.40    7.94    1.60  
  24   23:00    0.000     999.000     40.7     45     2.6      53     7.8   799.60    7.94    1.60  
  24   23:10    0.000     999.000     40.4     47     2.9      66     6.8   799.70    7.94    1.50  
  24   23:20    0.000     999.000     40.6     46     3.1      57     8.2   799.80    7.94    1.50  
  24   23:30    0.000     999.000     40.6     46     2.5      58     9.1   799.80    7.94    1.40  
  24   23:40    0.000     999.000     40.0     48     2.2      74     6.8   799.90    7.94    1.50  
  24   23:50    0.000     999.000     40.1     48     2.2      56     4.9   799.90    7.92    1.40  
  25    0:00    0.000     999.000     40.4     48     2.8      65     6.7   799.80    7.94    1.60  
  25    0:10    0.000     999.000     39.8     51     2.5      52     6.2   799.80    7.93    1.40  
  25    0:20    0.000     999.000     39.2     54     2.6      56     7.2   799.80    7.93    1.30  
  25    0:30    0.000     999.000     39.2     54     2.5      53     5.1   799.80    7.94    1.30  
  25    0:40    0.000     999.000     38.1     57     2.2      60     6.3   799.70    7.94    1.30  
  25    0:50    0.000     999.000     38.1     58     2.4      63     6.2   799.70    7.94    1.40  
  25    1:00    0.000     999.000     38.8     56     2.9      77    10.9   799.70    7.94    1.30  
  25    1:10    0.000     999.000     39.8     53     3.4      64     8.3   799.70    7.94    1.20  
  25    1:20    0.000     999.000     40.1     53     2.7      71     9.0   799.80    7.93    1.20  
  25    1:30    0.000     999.000     40.2     52     2.5      67     6.9   799.80    7.94    1.30  
  25    1:40    0.000     999.000     40.5     51     3.4      46     8.5   799.80    7.93    1.20  
  25    1:50    0.000     999.000     40.2     51     3.0      34     6.5   799.90    7.94    1.10  
  25    2:00    0.000     999.000     40.2     52     3.2      35     7.7   799.90    7.94    1.10  
  25    2:10    0.000     999.000     40.0     53     2.8      55     5.7   799.90    7.93    1.10  
  25    2:20    0.000     999.000     39.9     54     3.0      65     6.6   799.90    7.94    1.20  
  25    2:30    0.000     999.000     39.8     55     3.0      47     8.3   799.90    7.94    1.10  
  25    2:40    0.000     999.000     39.6     54     3.4      32     6.6   799.90    7.94    1.00  
  25    2:50    0.000     999.000     39.3     55     3.2      43     6.9   800.10    7.94    1.10  
  25    3:00    0.000     999.000     39.8     55     3.3      41     7.1   800.20    7.94    1.00  
  25    3:10    0.000     999.000     39.7     57     2.8      42     6.6   800.10    7.94    1.10  
  25    3:20    0.000     999.000     40.1     56     3.9      30    10.0   800.10    7.93    1.00  
  25    3:30    0.000     999.000     40.3     56     3.1      37     7.3   800.10    7.94    1.00  
  25    3:40    0.000     999.000     40.5     55     3.9      26     7.7   800.00    7.94    1.00  
  25    3:50    0.000     999.000     40.9     55     3.8      25    10.4   799.90    7.94    0.90  
  25    4:00    0.000     999.000     40.4     56     4.3      23     7.0   799.90    7.93    0.90  
  25    4:10    0.000     999.000     40.0     57     4.6      26     7.7   799.80    7.93    1.00  
  25    4:20    0.000     999.000     39.4     60     3.6      36     8.9   799.80    7.94    1.10  
  25    4:30    0.000     999.000     39.6     60     3.1      43     6.1   799.80    7.94    1.10  
  25    4:40    0.000     999.000     40.0     60     2.6      49     4.8   799.70    7.94    1.00  
  25    4:50    0.000     999.000     40.1     59     3.1      41     7.1   799.50    7.94    1.00  
  25    5:00    0.000     999.000     41.5     56     3.3      41     6.7   799.50    7.92    0.80  
  25    5:10    0.000     999.000     41.8     55     3.3      44     6.9   799.50    7.94    0.90  
  25    5:20    0.000     999.000     41.3     56     3.1      38     7.5   799.40    7.93    1.00  
  25    5:30    0.000     999.000     39.6     60     2.9      39     5.7   799.40    7.94    1.00  
  25    5:40    0.000     999.000     38.6     62     3.7      35     7.8   799.30    7.94    1.10  
  25    5:50    0.000     999.000     37.8     64     2.8      43     5.3   799.30    7.94    1.10  
  25    6:00    0.000     999.000     38.3     63     3.4      42    10.0   799.30    7.93    1.10  
  25    6:10    0.000     999.000     38.7     61     2.8      44     5.5   799.40    7.93    1.10  
  25    6:20    0.000     999.000     38.7     61     2.9      48     7.1   799.30    7.94    1.10  
  25    6:30    0.000     999.000     38.5     60     3.2      33     5.9   799.20    7.94    1.10  
  25    6:40    0.000     999.000     37.9     61     3.0      37     6.1   799.20    7.94    1.10  
  25    6:50    0.000     999.000     37.6     61     3.7      31     6.2   799.20    7.93    1.00  
  25    7:00    0.000     999.000     37.5     61     3.3      37     6.1   799.10    7.94    1.10  
  25    7:10    0.002     999.000     37.7     59     3.1      29     6.6   799.10    7.93    1.10  
  25    7:20    0.004     999.000     37.1     59     3.3      35     5.8   799.10    7.94    1.10  
  25    7:30    0.006     999.000     36.9     59     3.3      36     5.7   799.10    7.93    1.30  
  25    7:40    0.008     999.000     36.6     59     3.4      32     6.4   799.10    7.94    1.20  
  25    7:50    0.010     999.000     36.4     60     3.8      29     6.1   799.10    7.94    1.10  
  25    8:00    0.011     999.000     36.6     60     2.7      40     6.7   799.00    7.94    1.30  
  25    8:10    0.013     999.000     37.6     57     2.8      38     7.2   798.90    7.93    1.20  
  25    8:20    0.014     999.000     38.9     54     2.3      44     4.3   798.90    7.93    1.10  
  25    8:30    0.016     999.000     40.4     52     2.6      47     5.2   798.90    7.93    1.00  
  25    8:40    0.017     999.000     41.9     49     2.8      35     5.5   799.00    7.94    0.90  
  25    8:50    0.020     999.000     43.4     45     3.2      23     6.5   799.00    7.94    0.80  
  25    9:00    0.054     999.000     44.7     42     4.0      17     8.3   799.10    7.94    0.60  
  25    9:10    0.051     999.000     45.8     40     3.4      21     6.6   799.20    7.94    0.60  
  25    9:20    0.117     999.000     47.4     37     3.7      20     7.7   799.20    7.93    0.60  
  25    9:30    0.223     999.000     48.4     36     3.9      20     7.2   799.20    7.93    0.60  
  25    9:40    0.355     999.000     49.2     34     3.3      18     7.4   799.20    7.93    0.70  
  25    9:50    0.378     999.000     50.0     34     3.1      14     6.5   799.20    7.94    0.40  
  25   10:00    0.400     999.000     51.2     32     2.9      13     7.1   799.10    7.94    0.10  
  25   10:10    0.421     999.000     52.1     32     2.8      23     6.4   799.10    7.93   -0.20  
  25   10:20    0.442     999.000     53.1     30     3.2      13     7.6   799.10    7.93   -0.20  
  25   10:30    0.460     999.000     54.0     29     2.5      27     5.8   799.10    7.94   -0.70  
  25   10:40    0.477     999.000     55.1     28     2.7      39     9.7   799.10    7.93   -1.10  

Return to Central Sierra Snow Lab graphs page.


Western Regional Climate Center,wrcc@dri.edu